Time;durP1;ratioP1;P1;durP2;ratioP2;P2;SDS_P1;SDS_P2;PMS_P1;PMS_P2;Temp;Humidity;BMP_temperature;BMP_pressure;BME280_temperature;BME280_humidity;BME280_pressure;Samples;Min_cycle;Max_cycle;Signal;HPM_P1;HPM_P2
2023/09/02 00:00:58;;;;;;;;;;;15.50;99.90;;;;;;21005825;28;19916;-74
2023/09/02 00:10:59;;;;;;;;;;;15.60;99.90;;;;;;21016999;28;19955;-74
2023/09/02 00:20:59;;;;;;;;;;;15.50;99.90;;;;;;21016886;28;20294;-74
2023/09/02 00:31:00;;;;;;;;;;;15.30;99.90;;;;;;21016070;28;19912;-74
2023/09/02 00:41:02;;;;;;;;;;;15.40;99.90;;;;;;21061175;28;19916;-74
2023/09/02 00:51:03;;;;;;;;;;;15.40;99.90;;;;;;21054364;28;19951;-74
2023/09/02 01:01:05;;;;;;;;;;;15.40;99.90;;;;;;21010822;28;19916;-74
2023/09/02 01:11:06;;;;;;;;;;;15.30;99.90;;;;;;20982632;28;20015;-74
2023/09/02 01:21:15;;;;;;;;;;;15.30;99.90;;;;;;21048507;28;20362;-74
2023/09/02 01:31:16;;;;;;;;;;;15.20;99.90;;;;;;21006825;28;19912;-74
2023/09/02 01:41:17;;;;;;;;;;;15.20;99.90;;;;;;20980234;28;20394;-74
2023/09/02 01:51:19;;;;;;;;;;;15.10;99.90;;;;;;20997599;28;19916;-74
2023/09/02 02:01:19;;;;;;;;;;;14.60;99.90;;;;;;21012120;28;20361;-74
2023/09/02 02:11:21;;;;;;;;;;;14.50;99.90;;;;;;20978172;28;19955;-74
2023/09/02 02:21:21;;;;;;;;;;;14.20;99.90;;;;;;20995074;28;20019;-74
2023/09/02 02:31:22;;;;;;;;;;;13.90;99.90;;;;;;20994536;28;19955;-74
2023/09/02 02:41:23;;;;;;;;;;;13.80;99.90;;;;;;20993579;28;19921;-74
2023/09/02 02:51:24;;;;;;;;;;;13.60;99.90;;;;;;20992852;28;19912;-74
2023/09/02 03:01:25;;;;;;;;;;;13.50;99.90;;;;;;20974472;28;20007;-74
2023/09/02 03:11:26;;;;;;;;;;;13.50;99.90;;;;;;21006945;28;20371;-74
2023/09/02 03:21:27;;;;;;;;;;;13.80;99.90;;;;;;21018795;28;19923;-74
2023/09/02 03:31:29;;;;;;;;;;;13.90;99.90;;;;;;20947511;28;19913;-73
2023/09/02 03:41:31;;;;;;;;;;;14.00;99.90;;;;;;20973047;28;19971;-73
2023/09/02 03:51:32;;;;;;;;;;;14.20;99.90;;;;;;20990523;28;19912;-74
2023/09/02 04:01:34;;;;;;;;;;;14.10;99.90;;;;;;20972083;28;20014;-74
2023/09/02 04:11:36;;;;;;;;;;;14.10;99.90;;;;;;20996898;28;19913;-74
2023/09/02 04:21:36;;;;;;;;;;;14.00;99.90;;;;;;21008421;28;19928;-73
2023/09/02 04:31:37;;;;;;;;;;;14.00;99.90;;;;;;21009037;28;19936;-73
2023/09/02 04:41:39;;;;;;;;;;;13.90;99.90;;;;;;21022063;28;19923;-75
2023/09/02 04:51:40;;;;;;;;;;;14.10;99.90;;;;;;21040939;28;19912;-75
2023/09/02 05:01:41;;;;;;;;;;;14.00;99.90;;;;;;21037890;28;19974;-74
2023/09/02 05:11:42;;;;;;;;;;;13.90;99.90;;;;;;21065865;28;20333;-74
2023/09/02 05:21:44;;;;;;;;;;;14.10;99.90;;;;;;21072752;28;19920;-75
2023/09/02 05:31:45;;;;;;;;;;;14.40;99.90;;;;;;20980214;28;19948;-75
2023/09/02 05:41:45;;;;;;;;;;;14.60;99.90;;;;;;21034691;28;20321;-74
2023/09/02 05:51:46;;;;;;;;;;;14.80;99.90;;;;;;21033617;28;19927;-75
2023/09/02 06:01:46;;;;;;;;;;;15.30;99.90;;;;;;21036064;28;19916;-75
2023/09/02 06:11:47;;;;;;;;;;;15.70;99.90;;;;;;21040460;28;19912;-74
2023/09/02 06:21:48;;;;;;;;;;;15.60;99.90;;;;;;21043774;28;19927;-75
2023/09/02 06:31:48;;;;;;;;;;;15.80;99.90;;;;;;20997074;28;20456;-75
2023/09/02 06:41:49;;;;;;;;;;;16.60;99.90;;;;;;20992821;28;19960;-75
2023/09/02 06:51:50;;;;;;;;;;;17.50;99.90;;;;;;21007432;28;20414;-75
2023/09/02 07:01:51;;;;;;;;;;;17.90;99.90;;;;;;20991241;28;19916;-74
2023/09/02 07:11:52;;;;;;;;;;;17.60;99.90;;;;;;20990975;28;20007;-75
2023/09/02 07:21:55;;;;;;;;;;;18.00;99.90;;;;;;20990680;28;19920;-75
2023/09/02 07:31:56;;;;;;;;;;;19.20;99.90;;;;;;20991143;28;20301;-75
2023/09/02 07:41:56;;;;;;;;;;;19.80;99.90;;;;;;20989807;28;20014;-75
2023/09/02 07:51:57;;;;;;;;;;;20.50;99.90;;;;;;21008791;28;19916;-75
2023/09/02 08:01:58;;;;;;;;;;;21.30;99.90;;;;;;21010828;28;19979;-75
2023/09/02 08:11:58;;;;;;;;;;;21.50;99.90;;;;;;21045308;28;20434;-74
2023/09/02 08:21:59;;;;;;;;;;;21.70;99.90;;;;;;20987620;28;19956;-74
2023/09/02 08:32:00;;;;;;;;;;;23.00;99.90;;;;;;21002694;28;19916;-75
2023/09/02 08:42:01;;;;;;;;;;;24.40;99.90;;;;;;21002128;28;19920;-74
2023/09/02 08:52:02;;;;;;;;;;;25.30;99.90;;;;;;21001167;28;19920;-74
2023/09/02 09:02:03;;;;;;;;;;;25.60;99.90;;;;;;21000879;28;19956;-74
2023/09/02 09:12:06;;;;;;;;;;;26.10;99.90;;;;;;20999296;28;19916;-74
2023/09/02 09:22:07;;;;;;;;;;;26.50;99.90;;;;;;20999289;28;19962;-73
2023/09/02 09:32:11;;;;;;;;;;;26.70;99.90;;;;;;20998661;28;20329;-74
2023/09/02 09:42:12;;;;;;;;;;;27.20;99.90;;;;;;20997504;28;19970;-74
2023/09/02 09:52:13;;;;;;;;;;;27.70;99.90;;;;;;20997154;28;19913;-74
2023/09/02 10:02:16;;;;;;;;;;;28.60;99.90;;;;;;20997039;28;19966;-74
2023/09/02 10:12:17;;;;;;;;;;;27.60;99.90;;;;;;20995334;28;20022;-74
2023/09/02 10:22:19;;;;;;;;;;;28.70;99.90;;;;;;20994171;28;20413;-74
2023/09/02 10:32:23;;;;;;;;;;;29.00;99.90;;;;;;20993220;28;19969;-74
2023/09/02 10:42:26;;;;;;;;;;;30.40;99.90;;;;;;20992728;28;19928;-74
2023/09/02 10:52:27;;;;;;;;;;;30.20;99.90;;;;;;20956947;28;19913;-74
2023/09/02 11:02:57;;;;;;;;;;;29.80;99.90;;;;;;20991529;28;19968;-74
2023/09/02 11:13:01;;;;;;;;;;;29.80;99.90;;;;;;20963803;28;19919;-74
2023/09/02 11:23:04;;;;;;;;;;;29.60;99.90;;;;;;20995554;28;19917;-74
2023/09/02 11:33:08;;;;;;;;;;;30.00;99.90;;;;;;20987736;28;19920;-74
2023/09/02 11:43:09;;;;;;;;;;;30.50;99.90;;;;;;20989763;28;19925;-74
2023/09/02 11:53:10;;;;;;;;;;;30.60;99.90;;;;;;21038822;28;20401;-74
2023/09/02 12:03:13;;;;;;;;;;;30.50;99.90;;;;;;20988569;28;20322;-74
2023/09/02 12:13:16;;;;;;;;;;;30.50;99.90;;;;;;20988412;28;19913;-75
2023/09/02 12:23:17;;;;;;;;;;;30.60;99.90;;;;;;21014723;28;19916;-74
2023/09/02 12:33:18;;;;;;;;;;;30.70;99.90;;;;;;21007828;28;20290;-75
2023/09/02 12:43:23;;;;;;;;;;;31.10;99.90;;;;;;21017099;28;19995;-74
2023/09/02 12:53:25;;;;;;;;;;;31.50;98.80;;;;;;20990473;28;19920;-75
2023/09/02 13:03:26;;;;;;;;;;;31.20;99.50;;;;;;21004700;28;19916;-74
2023/09/02 13:13:27;;;;;;;;;;;32.50;96.00;;;;;;21000102;28;20528;-74
2023/09/02 13:23:31;;;;;;;;;;;30.40;98.80;;;;;;20999147;28;19916;-75
2023/09/02 13:33:32;;;;;;;;;;;30.40;99.80;;;;;;20998072;28;19912;-75
2023/09/02 13:43:33;;;;;;;;;;;31.60;97.10;;;;;;20997154;28;19916;-75
2023/09/02 13:53:33;;;;;;;;;;;31.50;96.40;;;;;;20995903;28;19934;-74
2023/09/02 14:03:35;;;;;;;;;;;31.20;97.30;;;;;;20995606;28;19920;-74
2023/09/02 14:13:40;;;;;;;;;;;31.80;96.60;;;;;;20994552;28;19913;-75
2023/09/02 14:23:40;;;;;;;;;;;31.60;96.50;;;;;;20993911;28;19917;-74
2023/09/02 14:33:41;;;;;;;;;;;31.90;95.70;;;;;;20975346;28;20453;-74
2023/09/02 14:43:44;;;;;;;;;;;31.90;95.90;;;;;;20992512;28;19939;-74
2023/09/02 14:53:45;;;;;;;;;;;31.80;95.50;;;;;;21006239;28;19916;-75
2023/09/02 15:03:46;;;;;;;;;;;31.70;96.10;;;;;;21070073;28;19924;-74
2023/09/02 15:13:46;;;;;;;;;;;31.90;95.70;;;;;;21074955;28;19912;-74
2023/09/02 15:23:47;;;;;;;;;;;31.40;94.90;;;;;;21074267;28;19923;-74
2023/09/02 15:33:48;;;;;;;;;;;31.10;96.80;;;;;;20989867;28;19963;-74
2023/09/02 15:43:52;;;;;;;;;;;30.00;98.70;;;;;;20989399;28;19917;-74
2023/09/02 15:53:53;;;;;;;;;;;30.30;99.40;;;;;;20991971;28;20014;-74
2023/09/02 16:03:53;;;;;;;;;;;30.30;97.80;;;;;;21057141;28;20405;-74
2023/09/02 16:13:54;;;;;;;;;;;29.90;98.60;;;;;;21045134;28;19942;-74
2023/09/02 16:23:56;;;;;;;;;;;29.30;99.90;;;;;;21045042;28;20397;-74
2023/09/02 16:33:57;;;;;;;;;;;29.10;99.70;;;;;;21003240;28;19917;-75
2023/09/02 16:43:57;;;;;;;;;;;28.30;99.90;;;;;;21002278;28;20003;-75
2023/09/02 16:54:00;;;;;;;;;;;27.90;99.90;;;;;;21001440;28;19919;-75
2023/09/02 17:04:01;;;;;;;;;;;27.20;99.90;;;;;;21000519;28;19924;-74
2023/09/02 17:14:04;;;;;;;;;;;26.20;99.90;;;;;;21035227;28;19912;-75
2023/09/02 17:24:05;;;;;;;;;;;25.70;99.90;;;;;;21062596;28;19920;-74
2023/09/02 17:34:06;;;;;;;;;;;25.40;99.90;;;;;;20998088;28;19919;-75
2023/09/02 17:44:06;;;;;;;;;;;25.20;99.90;;;;;;21024578;28;20019;-74
2023/09/02 17:54:07;;;;;;;;;;;24.70;99.90;;;;;;21022125;28;19917;-75
2023/09/02 18:04:07;;;;;;;;;;;24.50;99.90;;;;;;21048274;28;19920;-75
2023/09/02 18:14:08;;;;;;;;;;;24.00;99.90;;;;;;21006247;28;19913;-75
2023/09/02 18:24:09;;;;;;;;;;;23.60;99.90;;;;;;20986494;28;19924;-75
2023/09/02 18:34:10;;;;;;;;;;;23.10;99.90;;;;;;20989455;28;19999;-75
2023/09/02 18:44:12;;;;;;;;;;;23.10;99.90;;;;;;20989598;28;20708;-75
2023/09/02 18:54:13;;;;;;;;;;;21.70;99.90;;;;;;20992325;28;19912;-75
2023/09/02 19:04:14;;;;;;;;;;;21.70;99.90;;;;;;21040130;28;19916;-75
2023/09/02 19:14:14;;;;;;;;;;;21.40;99.90;;;;;;20991531;28;19916;-75
2023/09/02 19:24:15;;;;;;;;;;;21.50;99.90;;;;;;20956588;28;19994;-75
2023/09/02 19:34:16;;;;;;;;;;;20.80;99.90;;;;;;20991533;28;19946;-75
2023/09/02 19:44:16;;;;;;;;;;;20.50;99.90;;;;;;21012566;28;19916;-75
2023/09/02 19:54:17;;;;;;;;;;;20.60;99.90;;;;;;21064205;28;19912;-75
2023/09/02 20:04:18;;;;;;;;;;;20.60;99.90;;;;;;21005438;28;20252;-75
2023/09/02 20:14:18;;;;;;;;;;;19.90;99.90;;;;;;21005202;28;20027;-74
2023/09/02 20:24:25;;;;;;;;;;;19.70;99.90;;;;;;21004413;28;20298;-75
2023/09/02 20:34:26;;;;;;;;;;;19.80;99.90;;;;;;21003718;28;19912;-75
2023/09/02 20:44:27;;;;;;;;;;;19.10;99.90;;;;;;21002782;28;19962;-75
2023/09/02 20:54:27;;;;;;;;;;;19.00;99.90;;;;;;21024479;28;19919;-75
2023/09/02 21:04:28;;;;;;;;;;;19.40;99.90;;;;;;21049399;28;20007;-75
2023/09/02 21:14:29;;;;;;;;;;;19.10;99.90;;;;;;21084357;28;20031;-74
2023/09/02 21:24:29;;;;;;;;;;;18.30;99.90;;;;;;21059221;28;19916;-75
2023/09/02 21:34:30;;;;;;;;;;;18.40;99.90;;;;;;21005817;28;19947;-74
2023/09/02 21:44:31;;;;;;;;;;;18.30;99.90;;;;;;20997818;28;19967;-75
2023/09/02 21:54:32;;;;;;;;;;;18.90;99.90;;;;;;20996882;28;19916;-75
2023/09/02 22:04:32;;;;;;;;;;;19.20;99.90;;;;;;20996413;28;19917;-75
2023/09/02 22:14:33;;;;;;;;;;;19.20;99.90;;;;;;20995218;28;19913;-75
2023/09/02 22:24:34;;;;;;;;;;;19.10;99.90;;;;;;20995206;28;19916;-75
2023/09/02 22:34:34;;;;;;;;;;;19.00;99.90;;;;;;21039525;28;20238;-75
2023/09/02 22:44:35;;;;;;;;;;;18.90;99.90;;;;;;21077244;28;20449;-74
2023/09/02 22:54:36;;;;;;;;;;;18.70;99.90;;;;;;21069467;28;19919;-74
2023/09/02 23:04:36;;;;;;;;;;;18.70;99.90;;;;;;20991669;28;20329;-74
2023/09/02 23:14:37;;;;;;;;;;;18.50;99.90;;;;;;20991189;28;19912;-75
2023/09/02 23:24:37;;;;;;;;;;;18.40;99.90;;;;;;21005521;28;19917;-74
2023/09/02 23:34:38;;;;;;;;;;;18.50;99.90;;;;;;20987997;28;19912;-74
2023/09/02 23:44:39;;;;;;;;;;;17.80;99.90;;;;;;20989177;28;19917;-75
2023/09/02 23:54:40;;;;;;;;;;;17.00;99.90;;;;;;20971471;28;20378;-75
